LFPT

Pontoise - Cormeilles-en-Vexin Airport

Airport
ICAO code
LFPT
IATA Code
POX
Summary
ICAO Region
EUR
ICAO Territory
Location

, Ile-de-France

Serving
Pontoise
Elevation
325 ft
Coordinates
49° 5' 48" N , 2° 2' 27" E
Metar
LFPT 262330Z AUTO 03018G30KT 9999 OVC014 06/04 Q1012

Runways

Designator Length Width Surface Rops
12/30 1650 50 ASP Yes/Yes
5/23 1689 50 ASP Yes/Yes

Airport map

Aerial View

SKYbrary Partners:

Safety knowledge contributed by: